首页
METAR-TAF:

METAR-TAF

机场 :

塔那那利佛/伊瓦图国际机场

塔那那利佛, 马达加斯加

纬度: 18-48S, 经度: 047-29E, 海拔: 1279米

当前天气观测

该预报发布于23分钟前的07:00 UTC
风速9节,风向西北,在西之间变化
温度 24°C
湿度 65%
气压 1018 hPa
能见度10公里或以上
多云层高于2300英尺

METAR: FMMI 240700Z 32009KT 270V350 9999 BKN023 24/17 Q1018 NOSIG

时间: 10:23 (07:23 UTC)

预报

该预报发布于2小时和8分钟前的05:15 UTC
预报有效从24日的 06点(UTC)到 25日的 12点(UTC)
风速10节,风向
能见度10公里或以上
少量云层高于1000英尺
多云层高于2000英尺
成为
从 24日的 08点(UTC)到 24日的 11点(UTC)
散云层高于1700英尺, 积雨云.
散云层高于2000英尺
几率 40% :
短暂存在
从 24日的 10点(UTC)到 24日的 18点(UTC)
能見度: 4000
雷暴, 雨
几率 30% :
短暂存在
从 24日的 18点(UTC)到 25日的 03点(UTC)
能見度: 4000
雨, 毛毛雨

TAF: FMMI 240515Z 2406/2512 36010KT 9999 FEW010 BKN020 BECMG 2408/2411 SCT017CB SCT020 PROB40 TEMPO 2410/2418 4000 TSRA PROB30 TEMPO 2418/2503 4000 RADZ

超过4000个机场的气象观测和天气预报(METAR&TAF报告)。

可查询的气象台以黄色和红色小点在地图上表示。

将鼠标移到小点上方,可查看气象台名称。

然后点击查看天气观测和预报。

如需切换地图:点击带黑十字的绿色按钮放大地图;点击带横线的绿色按钮缩小地图;或者点击绿色箭头查看邻近地区的地图。


METAR-TAF: